Edith Kirk — 2DST9 — position and weather

sailwx.info

Track history (hours):
 
Tides and Currents Weather Stations Pressure Air Temp Water Temp Dewpoint Dewpoint Depression Visibility Wind Speed Wind Dir Waves Ship Positions

Edith Kirk

Last reported at 2017-Sep-14 13:53 UTC. Time now 2017-Nov-23 01:59 UTC.
Position N 40°42' E 029°21'.
Warning: this ship's position is months out of date.

Length 183 m; draft 7.5 m.

Type: Ship. MMSI: 235081745.

Date/timePositionNaut miles runAvg speedWind from/ knotsBaromVisibWave heightAir tempDewpointWater temp
2017-Sep-14 13:53N 40°42' E 029°21'107 6.4
2017-Sep-13 21:14N 40°31' E 027°01'2 9.6
2017-Sep-13 21:00N 40°30' E 026°58'5 9.6
2017-Sep-13 20:30N 40°28' E 026°52'2812.4
2017-Sep-13 18:17N 40°12' E 026°23'24 4.3
2017-Sep-13 12:36N 39°53' E 026°03'0 0.0
2017-Sep-13 08:49N 39°53' E 026°03'2 0.2
2017-Sep-12 17:38N 39°54' E 025°60'1 9.8
2017-Sep-12 17:30N 39°53' E 025°58'4 8.1
2017-Sep-12 17:01N 39°52' E 025°54'3 5.7
2017-Sep-12 16:30N 39°50' E 025°51'5 8.3
2017-Sep-12 15:57N 39°46' E 025°48'6 8.6
2017-Sep-12 15:14N 39°40' E 025°44'192 9.0
2017-Sep-11 17:47N 36°55' E 023°39'312.1
2017-Sep-11 17:30N 36°53' E 023°36'1011.7
2017-Sep-11 16:40N 36°45' E 023°29'159 9.0
2017-Sep-10 23:04N 36°21' E 020°14'111.2
2017-Sep-10 23:00N 36°21' E 020°13'610.9
2017-Sep-10 22:30N 36°21' E 020°06'26210.1
2017-Sep-09 20:36N 36°26' E 014°41'111.5
2017-Sep-09 20:30N 36°26' E 014°39'611.5
2017-Sep-09 20:01N 36°26' E 014°32'611.7
2017-Sep-09 19:30N 36°28' E 014°25'611.7
2017-Sep-09 19:01N 36°29' E 014°18'611.9
2017-Sep-09 18:28N 36°30' E 014°10'611.9
2017-Sep-09 18:00N 36°31' E 014°03'711.8
2017-Sep-09 17:25N 36°33' E 013°55'511.6
2017-Sep-09 16:57N 36°34' E 013°48'711.5
2017-Sep-09 16:23N 36°35' E 013°40'  
2017-Sep-07 01:54N 37°22' E 001°10'510.5
2017-Sep-07 01:26N 37°20' E 001°04'810.6
2017-Sep-07 00:43N 37°17' E 000°55'210.7
2017-Sep-07 00:30N 37°16' E 000°53'510.6
2017-Sep-07 00:00N 37°14' E 000°46'1410.9
2017-Sep-06 22:44N 37°09' E 000°30'411.1
2017-Sep-06 22:22N 37°08' E 000°25'511.1
2017-Sep-06 21:54N 37°06' E 000°19'411.1
2017-Sep-06 21:30N 37°04' E 000°14'511.0
2017-Sep-06 21:00N 37°02' E 000°08'510.9
2017-Sep-06 20:30N 36°60' E 000°02'611.1
2017-Sep-06 20:00N 36°58' W 000°05'511.0
2017-Sep-06 19:30N 36°56' W 000°11'510.8
2017-Sep-06 19:01N 36°54' W 000°18'510.6
2017-Sep-06 18:30N 36°52' W 000°24'510.5
2017-Sep-06 18:00N 36°50' W 000°30'510.5
2017-Sep-06 17:30N 36°48' W 000°36'510.5
2017-Sep-06 17:00N 36°46' W 000°42'510.5
2017-Sep-06 16:30N 36°44' W 000°48'510.5
2017-Sep-06 16:00N 36°42' W 000°54'510.6
2017-Sep-06 15:30N 36°40' W 001°00'510.8
2017-Sep-06 15:00N 36°38' W 001°07'611.2
2017-Sep-06 14:30N 36°36' W 001°13'4911.6
2017-Sep-06 10:17N 36°18' W 002°10'311.3
2017-Sep-06 10:01N 36°17' W 002°13'1 0.6
2017-Sep-06 08:10N 36°16' W 002°15'0 0.5
2017-Sep-06 08:00N 36°16' W 002°15'0 0.4
2017-Sep-06 07:25N 36°16' W 002°15'1 2.6
2017-Sep-06 06:56N 36°16' W 002°16'410.2
2017-Sep-06 06:30N 36°16' W 002°22'611.8
2017-Sep-06 06:00N 36°15' W 002°29'611.7
2017-Sep-06 05:31N 36°14' W 002°36'12411.4
2017-Sep-05 18:38N 36°01' W 005°09'211.3
2017-Sep-05 18:28N 36°01' W 005°11'511.4
2017-Sep-05 18:00N 36°00' W 005°17'611.7
2017-Sep-05 17:30N 35°58' W 005°24'713.6
2017-Sep-05 17:00N 35°56' W 005°32'712.6
2017-Sep-05 16:26N 35°54' W 005°41'5511.2
2017-Sep-05 11:31N 35°57' W 006°49'39 9.4
2017-Sep-05 07:18N 36°08' W 007°35'3 8.0
2017-Sep-05 06:52N 36°09' W 007°40'10 8.9
2017-Sep-05 05:46N 36°12' W 007°51'2510.0
2017-Sep-05 03:18N 36°20' W 008°20'310.2
2017-Sep-05 03:00N 36°20' W 008°24'510.4
2017-Sep-05 02:30N 36°22' W 008°30'510.6
2017-Sep-05 02:00N 36°23' W 008°36'610.4
2017-Sep-05 01:28N 36°25' W 008°43'510.7
2017-Sep-05 01:00N 36°27' W 008°49'510.9
2017-Sep-05 00:30N 36°28' W 008°55'611.2
2017-Sep-05 00:00N 36°30' W 009°02'510.8
2017-Sep-04 23:31N 36°31' W 009°08'510.8
2017-Sep-04 23:00N 36°33' W 009°15'510.4
2017-Sep-04 22:30N 36°36' W 009°20'510.8
2017-Sep-04 22:00N 36°40' W 009°25'510.8
2017-Sep-04 21:31N 36°44' W 009°29'510.7
2017-Sep-04 21:01N 36°48' W 009°33'611.2
2017-Sep-04 20:30N 36°54' W 009°34'611.1
2017-Sep-04 20:01N 36°59' W 009°36'911.0
2017-Sep-04 19:10N 37°08' W 009°39'311.2
2017-Sep-04 18:56N 37°11' W 009°39'511.5
2017-Sep-04 18:30N 37°16' W 009°41'811.4
2017-Sep-04 17:46N 37°24' W 009°43'311.5
2017-Sep-04 17:30N 37°27' W 009°44'611.4
2017-Sep-04 17:01N 37°32' W 009°46'711.1
2017-Sep-04 16:23N 37°39' W 009°48'410.8
2017-Sep-04 16:01N 37°43' W 009°49'510.8
2017-Sep-04 15:31N 37°48' W 009°50'5 9.4
2017-Sep-04 15:00N 37°53' W 009°52'611.2
2017-Sep-04 14:31N 37°58' W 009°54'611.4
2017-Sep-04 14:00N 38°04' W 009°55'  
Track history (hours):
 
Tides and Currents Weather Stations Pressure Air Temp Water Temp Dewpoint Dewpoint Depression Visibility Wind Speed Wind Dir Waves Ship Positions

Edith Kirk

Last reported at 2017-Sep-14 13:53 UTC. Time now 2017-Nov-23 01:59 UTC.
Position N 40°42' E 029°21'.
Warning: this ship's position is months out of date.

Length 183 m; draft 7.5 m.

Type: Ship. MMSI: 235081745.

Date/timePositionNaut miles runAvg speedWind from/ knotsBaromVisibWave heightAir tempDewpointWater temp
2017-Sep-14 13:53N 40°42' E 029°21'107 6.4
2017-Sep-13 21:14N 40°31' E 027°01'2 9.6
2017-Sep-13 21:00N 40°30' E 026°58'5 9.6
2017-Sep-13 20:30N 40°28' E 026°52'2812.4
2017-Sep-13 18:17N 40°12' E 026°23'24 4.3
2017-Sep-13 12:36N 39°53' E 026°03'0 0.0
2017-Sep-13 08:49N 39°53' E 026°03'2 0.2
2017-Sep-12 17:38N 39°54' E 025°60'1 9.8
2017-Sep-12 17:30N 39°53' E 025°58'4 8.1
2017-Sep-12 17:01N 39°52' E 025°54'3 5.7
2017-Sep-12 16:30N 39°50' E 025°51'5 8.3
2017-Sep-12 15:57N 39°46' E 025°48'6 8.6
2017-Sep-12 15:14N 39°40' E 025°44'192 9.0
2017-Sep-11 17:47N 36°55' E 023°39'312.1
2017-Sep-11 17:30N 36°53' E 023°36'1011.7
2017-Sep-11 16:40N 36°45' E 023°29'159 9.0
2017-Sep-10 23:04N 36°21' E 020°14'111.2
2017-Sep-10 23:00N 36°21' E 020°13'610.9
2017-Sep-10 22:30N 36°21' E 020°06'26210.1
2017-Sep-09 20:36N 36°26' E 014°41'111.5
2017-Sep-09 20:30N 36°26' E 014°39'611.5
2017-Sep-09 20:01N 36°26' E 014°32'611.7
2017-Sep-09 19:30N 36°28' E 014°25'611.7
2017-Sep-09 19:01N 36°29' E 014°18'611.9
2017-Sep-09 18:28N 36°30' E 014°10'611.9
2017-Sep-09 18:00N 36°31' E 014°03'711.8
2017-Sep-09 17:25N 36°33' E 013°55'511.6
2017-Sep-09 16:57N 36°34' E 013°48'711.5
2017-Sep-09 16:23N 36°35' E 013°40'  
2017-Sep-07 01:54N 37°22' E 001°10'510.5
2017-Sep-07 01:26N 37°20' E 001°04'810.6
2017-Sep-07 00:43N 37°17' E 000°55'210.7
2017-Sep-07 00:30N 37°16' E 000°53'510.6
2017-Sep-07 00:00N 37°14' E 000°46'1410.9
2017-Sep-06 22:44N 37°09' E 000°30'411.1
2017-Sep-06 22:22N 37°08' E 000°25'511.1
2017-Sep-06 21:54N 37°06' E 000°19'411.1
2017-Sep-06 21:30N 37°04' E 000°14'511.0
2017-Sep-06 21:00N 37°02' E 000°08'510.9
2017-Sep-06 20:30N 36°60' E 000°02'611.1
2017-Sep-06 20:00N 36°58' W 000°05'511.0
2017-Sep-06 19:30N 36°56' W 000°11'510.8
2017-Sep-06 19:01N 36°54' W 000°18'510.6
2017-Sep-06 18:30N 36°52' W 000°24'510.5
2017-Sep-06 18:00N 36°50' W 000°30'510.5
2017-Sep-06 17:30N 36°48' W 000°36'510.5
2017-Sep-06 17:00N 36°46' W 000°42'510.5
2017-Sep-06 16:30N 36°44' W 000°48'510.5
2017-Sep-06 16:00N 36°42' W 000°54'510.6
2017-Sep-06 15:30N 36°40' W 001°00'510.8
2017-Sep-06 15:00N 36°38' W 001°07'611.2
2017-Sep-06 14:30N 36°36' W 001°13'4911.6
2017-Sep-06 10:17N 36°18' W 002°10'311.3
2017-Sep-06 10:01N 36°17' W 002°13'1 0.6
2017-Sep-06 08:10N 36°16' W 002°15'0 0.5
2017-Sep-06 08:00N 36°16' W 002°15'0 0.4
2017-Sep-06 07:25N 36°16' W 002°15'1 2.6
2017-Sep-06 06:56N 36°16' W 002°16'410.2
2017-Sep-06 06:30N 36°16' W 002°22'611.8
2017-Sep-06 06:00N 36°15' W 002°29'611.7
2017-Sep-06 05:31N 36°14' W 002°36'12411.4
2017-Sep-05 18:38N 36°01' W 005°09'211.3
2017-Sep-05 18:28N 36°01' W 005°11'511.4
2017-Sep-05 18:00N 36°00' W 005°17'611.7
2017-Sep-05 17:30N 35°58' W 005°24'713.6
2017-Sep-05 17:00N 35°56' W 005°32'712.6
2017-Sep-05 16:26N 35°54' W 005°41'5511.2
2017-Sep-05 11:31N 35°57' W 006°49'39 9.4
2017-Sep-05 07:18N 36°08' W 007°35'3 8.0
2017-Sep-05 06:52N 36°09' W 007°40'10 8.9
2017-Sep-05 05:46N 36°12' W 007°51'2510.0
2017-Sep-05 03:18N 36°20' W 008°20'310.2
2017-Sep-05 03:00N 36°20' W 008°24'510.4
2017-Sep-05 02:30N 36°22' W 008°30'510.6
2017-Sep-05 02:00N 36°23' W 008°36'610.4
2017-Sep-05 01:28N 36°25' W 008°43'510.7
2017-Sep-05 01:00N 36°27' W 008°49'510.9
2017-Sep-05 00:30N 36°28' W 008°55'611.2
2017-Sep-05 00:00N 36°30' W 009°02'510.8
2017-Sep-04 23:31N 36°31' W 009°08'510.8
2017-Sep-04 23:00N 36°33' W 009°15'510.4
2017-Sep-04 22:30N 36°36' W 009°20'510.8
2017-Sep-04 22:00N 36°40' W 009°25'510.8
2017-Sep-04 21:31N 36°44' W 009°29'510.7
2017-Sep-04 21:01N 36°48' W 009°33'611.2
2017-Sep-04 20:30N 36°54' W 009°34'611.1
2017-Sep-04 20:01N 36°59' W 009°36'911.0
2017-Sep-04 19:10N 37°08' W 009°39'311.2
2017-Sep-04 18:56N 37°11' W 009°39'511.5
2017-Sep-04 18:30N 37°16' W 009°41'811.4
2017-Sep-04 17:46N 37°24' W 009°43'311.5
2017-Sep-04 17:30N 37°27' W 009°44'611.4
2017-Sep-04 17:01N 37°32' W 009°46'711.1
2017-Sep-04 16:23N 37°39' W 009°48'410.8
2017-Sep-04 16:01N 37°43' W 009°49'510.8
2017-Sep-04 15:31N 37°48' W 009°50'5 9.4
2017-Sep-04 15:00N 37°53' W 009°52'611.2
2017-Sep-04 14:31N 37°58' W 009°54'611.4
2017-Sep-04 14:00N 38°04' W 009°55'  

Dump ship's entire track history